sensor_id;sensor_type;location;lat;lon;timestamp;temperature;humidity
51007;DHT22;37034;47.886;-3.904;2022-09-20T00:00:05;17.60;81.00
51007;DHT22;37034;47.886;-3.904;2022-09-20T00:02:31;17.60;80.50
51007;DHT22;37034;47.886;-3.904;2022-09-20T00:04:57;17.70;80.20
51007;DHT22;37034;47.886;-3.904;2022-09-20T00:07:22;17.60;81.20
51007;DHT22;37034;47.886;-3.904;2022-09-20T00:09:48;17.60;81.30
51007;DHT22;37034;47.886;-3.904;2022-09-20T00:12:13;17.60;81.10
51007;DHT22;37034;47.886;-3.904;2022-09-20T00:14:39;17.60;81.10
51007;DHT22;37034;47.886;-3.904;2022-09-20T00:17:05;17.60;80.80
51007;DHT22;37034;47.886;-3.904;2022-09-20T00:19:31;17.60;80.80
51007;DHT22;37034;47.886;-3.904;2022-09-20T00:21:56;17.60;81.80
51007;DHT22;37034;47.886;-3.904;2022-09-20T00:24:22;17.60;81.50
51007;DHT22;37034;47.886;-3.904;2022-09-20T00:26:48;17.60;81.40
51007;DHT22;37034;47.886;-3.904;2022-09-20T00:29:13;17.60;81.60
51007;DHT22;37034;47.886;-3.904;2022-09-20T00:31:39;17.60;81.30
51007;DHT22;37034;47.886;-3.904;2022-09-20T00:34:08;17.60;81.40
51007;DHT22;37034;47.886;-3.904;2022-09-20T00:36:52;17.60;81.60
51007;DHT22;37034;47.886;-3.904;2022-09-20T00:39:18;17.60;81.40
51007;DHT22;37034;47.886;-3.904;2022-09-20T00:41:44;17.60;81.80
51007;DHT22;37034;47.886;-3.904;2022-09-20T00:44:42;17.60;81.60
51007;DHT22;37034;47.886;-3.904;2022-09-20T00:53:22;17.60;81.80
51007;DHT22;37034;47.886;-3.904;2022-09-20T00:55:59;17.60;82.00
51007;DHT22;37034;47.886;-3.904;2022-09-20T00:58:28;17.60;82.20
51007;DHT22;37034;47.886;-3.904;2022-09-20T01:00:55;17.50;81.90
51007;DHT22;37034;47.886;-3.904;2022-09-20T01:03:24;17.50;82.10
51007;DHT22;37034;47.886;-3.904;2022-09-20T01:05:51;17.60;82.40
51007;DHT22;37034;47.886;-3.904;2022-09-20T01:08:18;17.50;82.00
51007;DHT22;37034;47.886;-3.904;2022-09-20T01:10:44;17.50;82.50
51007;DHT22;37034;47.886;-3.904;2022-09-20T01:13:09;17.50;82.90
51007;DHT22;37034;47.886;-3.904;2022-09-20T01:15:36;17.50;82.50
51007;DHT22;37034;47.886;-3.904;2022-09-20T01:18:05;17.50;82.50
51007;DHT22;37034;47.886;-3.904;2022-09-20T01:20:40;17.50;82.70
51007;DHT22;37034;47.886;-3.904;2022-09-20T01:28:28;17.50;82.60
51007;DHT22;37034;47.886;-3.904;2022-09-20T01:34:02;17.40;83.20
51007;DHT22;37034;47.886;-3.904;2022-09-20T01:36:35;17.40;83.40
51007;DHT22;37034;47.886;-3.904;2022-09-20T01:41:53;17.40;83.20
51007;DHT22;37034;47.886;-3.904;2022-09-20T01:46:55;17.40;83.20
51007;DHT22;37034;47.886;-3.904;2022-09-20T02:00:16;17.40;82.80
51007;DHT22;37034;47.886;-3.904;2022-09-20T02:11:13;17.40;83.30
51007;DHT22;37034;47.886;-3.904;2022-09-20T02:14:04;17.40;83.20
51007;DHT22;37034;47.886;-3.904;2022-09-20T02:16:51;17.40;83.50
51007;DHT22;37034;47.886;-3.904;2022-09-20T02:19:49;17.30;83.50
51007;DHT22;37034;47.886;-3.904;2022-09-20T02:25:40;17.40;83.50
51007;DHT22;37034;47.886;-3.904;2022-09-20T02:28:36;17.30;83.40
51007;DHT22;37034;47.886;-3.904;2022-09-20T02:31:29;17.30;83.60
51007;DHT22;37034;47.886;-3.904;2022-09-20T02:34:15;17.30;83.60
51007;DHT22;37034;47.886;-3.904;2022-09-20T02:36:55;17.30;83.70
51007;DHT22;37034;47.886;-3.904;2022-09-20T02:45:41;17.40;84.00
51007;DHT22;37034;47.886;-3.904;2022-09-20T02:48:08;17.40;83.80
51007;DHT22;37034;47.886;-3.904;2022-09-20T02:50:49;17.40;83.40
51007;DHT22;37034;47.886;-3.904;2022-09-20T02:56:03;17.50;83.40
51007;DHT22;37034;47.886;-3.904;2022-09-20T02:58:54;17.40;83.30
51007;DHT22;37034;47.886;-3.904;2022-09-20T03:04:10;17.40;83.50
51007;DHT22;37034;47.886;-3.904;2022-09-20T03:07:06;17.40;83.60
51007;DHT22;37034;47.886;-3.904;2022-09-20T03:18:15;17.20;83.70
51007;DHT22;37034;47.886;-3.904;2022-09-20T03:27:01;17.30;83.60
51007;DHT22;37034;47.886;-3.904;2022-09-20T03:38:08;17.20;83.60
51007;DHT22;37034;47.886;-3.904;2022-09-20T03:46:28;17.20;83.40
51007;DHT22;37034;47.886;-3.904;2022-09-20T03:54:51;17.20;83.40
51007;DHT22;37034;47.886;-3.904;2022-09-20T04:14:20;17.00;83.90
51007;DHT22;37034;47.886;-3.904;2022-09-20T04:16:57;17.00;83.60
51007;DHT22;37034;47.886;-3.904;2022-09-20T04:21:59;17.00;83.30
51007;DHT22;37034;47.886;-3.904;2022-09-20T04:27:01;17.00;83.20
51007;DHT22;37034;47.886;-3.904;2022-09-20T04:29:40;17.00;83.10
51007;DHT22;37034;47.886;-3.904;2022-09-20T04:32:30;16.80;83.30
51007;DHT22;37034;47.886;-3.904;2022-09-20T04:35:05;16.80;83.40
51007;DHT22;37034;47.886;-3.904;2022-09-20T04:37:55;16.80;83.50
51007;DHT22;37034;47.886;-3.904;2022-09-20T05:11:54;16.50;83.70
51007;DHT22;37034;47.886;-3.904;2022-09-20T05:15:10;16.40;83.60
51007;DHT22;37034;47.886;-3.904;2022-09-20T05:30:57;16.40;83.20
51007;DHT22;37034;47.886;-3.904;2022-09-20T05:36:35;16.20;83.50
51007;DHT22;37034;47.886;-3.904;2022-09-20T05:41:55;16.20;83.50
51007;DHT22;37034;47.886;-3.904;2022-09-20T06:00:21;16.00;83.90
51007;DHT22;37034;47.886;-3.904;2022-09-20T06:22:52;15.90;83.70
51007;DHT22;37034;47.886;-3.904;2022-09-20T06:25:26;15.80;83.90
51007;DHT22;37034;47.886;-3.904;2022-09-20T06:28:05;15.80;83.90
51007;DHT22;37034;47.886;-3.904;2022-09-20T06:30:36;15.80;83.90
51007;DHT22;37034;47.886;-3.904;2022-09-20T06:33:21;15.80;84.00
51007;DHT22;37034;47.886;-3.904;2022-09-20T06:36:01;15.80;83.90
51007;DHT22;37034;47.886;-3.904;2022-09-20T06:39:06;15.70;84.00
51007;DHT22;37034;47.886;-3.904;2022-09-20T06:41:55;15.80;84.20
51007;DHT22;37034;47.886;-3.904;2022-09-20T06:44:22;15.90;84.00
51007;DHT22;37034;47.886;-3.904;2022-09-20T06:46:48;15.80;83.90
51007;DHT22;37034;47.886;-3.904;2022-09-20T06:49:19;15.80;84.10
51007;DHT22;37034;47.886;-3.904;2022-09-20T06:51:45;15.80;85.40
51007;DHT22;37034;47.886;-3.904;2022-09-20T06:54:16;15.90;86.00
51007;DHT22;37034;47.886;-3.904;2022-09-20T06:56:43;16.10;85.80
51007;DHT22;37034;47.886;-3.904;2022-09-20T06:59:09;16.30;85.70
51007;DHT22;37034;47.886;-3.904;2022-09-20T07:01:36;16.50;84.80
51007;DHT22;37034;47.886;-3.904;2022-09-20T07:04:03;16.70;84.80
51007;DHT22;37034;47.886;-3.904;2022-09-20T07:06:29;16.90;83.90
51007;DHT22;37034;47.886;-3.904;2022-09-20T07:08:54;17.00;83.60
51007;DHT22;37034;47.886;-3.904;2022-09-20T07:11:20;17.20;83.50
51007;DHT22;37034;47.886;-3.904;2022-09-20T07:13:52;17.30;82.30
51007;DHT22;37034;47.886;-3.904;2022-09-20T07:16:18;17.30;82.10
51007;DHT22;37034;47.886;-3.904;2022-09-20T07:18:45;17.40;82.30
51007;DHT22;37034;47.886;-3.904;2022-09-20T07:21:12;17.50;81.80
51007;DHT22;37034;47.886;-3.904;2022-09-20T07:23:39;17.50;82.10
51007;DHT22;37034;47.886;-3.904;2022-09-20T07:26:05;17.60;82.00
51007;DHT22;37034;47.886;-3.904;2022-09-20T07:28:33;17.70;81.40
51007;DHT22;37034;47.886;-3.904;2022-09-20T07:30:59;17.80;81.70
51007;DHT22;37034;47.886;-3.904;2022-09-20T07:33:25;17.90;81.80
51007;DHT22;37034;47.886;-3.904;2022-09-20T07:35:54;18.00;80.80
51007;DHT22;37034;47.886;-3.904;2022-09-20T07:38:21;18.00;81.10
51007;DHT22;37034;47.886;-3.904;2022-09-20T07:40:55;18.10;80.90
51007;DHT22;37034;47.886;-3.904;2022-09-20T07:43:21;18.20;80.50
51007;DHT22;37034;47.886;-3.904;2022-09-20T07:45:49;18.30;79.80
51007;DHT22;37034;47.886;-3.904;2022-09-20T07:48:20;18.40;80.00
51007;DHT22;37034;47.886;-3.904;2022-09-20T07:51:04;18.40;79.60
51007;DHT22;37034;47.886;-3.904;2022-09-20T07:53:30;18.50;79.60
51007;DHT22;37034;47.886;-3.904;2022-09-20T07:56:04;18.50;79.20
51007;DHT22;37034;47.886;-3.904;2022-09-20T07:58:32;18.50;79.60
51007;DHT22;37034;47.886;-3.904;2022-09-20T08:01:04;18.60;79.30
51007;DHT22;37034;47.886;-3.904;2022-09-20T08:03:31;18.60;79.20
51007;DHT22;37034;47.886;-3.904;2022-09-20T08:05:59;18.70;78.70
51007;DHT22;37034;47.886;-3.904;2022-09-20T08:08:24;18.80;79.60
51007;DHT22;37034;47.886;-3.904;2022-09-20T08:10:50;18.80;78.40
51007;DHT22;37034;47.886;-3.904;2022-09-20T08:13:16;18.90;78.60
51007;DHT22;37034;47.886;-3.904;2022-09-20T08:15:45;19.00;78.10
51007;DHT22;37034;47.886;-3.904;2022-09-20T08:18:10;19.00;78.20
51007;DHT22;37034;47.886;-3.904;2022-09-20T08:20:38;19.10;78.30
51007;DHT22;37034;47.886;-3.904;2022-09-20T08:23:05;19.20;78.20
51007;DHT22;37034;47.886;-3.904;2022-09-20T08:25:31;19.30;78.10
51007;DHT22;37034;47.886;-3.904;2022-09-20T08:27:57;19.40;78.30
51007;DHT22;37034;47.886;-3.904;2022-09-20T08:30:23;19.50;77.70
51007;DHT22;37034;47.886;-3.904;2022-09-20T08:32:49;19.50;76.70
51007;DHT22;37034;47.886;-3.904;2022-09-20T08:35:15;19.50;78.90
51007;DHT22;37034;47.886;-3.904;2022-09-20T08:37:42;19.60;77.40
51007;DHT22;37034;47.886;-3.904;2022-09-20T08:40:14;19.70;76.80
51007;DHT22;37034;47.886;-3.904;2022-09-20T08:42:41;19.80;75.90
51007;DHT22;37034;47.886;-3.904;2022-09-20T08:45:26;19.80;75.60
51007;DHT22;37034;47.886;-3.904;2022-09-20T08:47:53;19.90;75.30
51007;DHT22;37034;47.886;-3.904;2022-09-20T08:50:20;20.00;75.90
51007;DHT22;37034;47.886;-3.904;2022-09-20T08:52:48;20.10;76.40
51007;DHT22;37034;47.886;-3.904;2022-09-20T08:55:23;20.20;75.20
51007;DHT22;37034;47.886;-3.904;2022-09-20T08:57:54;20.20;74.70
51007;DHT22;37034;47.886;-3.904;2022-09-20T09:00:24;20.30;74.90
51007;DHT22;37034;47.886;-3.904;2022-09-20T09:02:56;20.40;74.80
51007;DHT22;37034;47.886;-3.904;2022-09-20T09:07:58;20.60;74.20
51007;DHT22;37034;47.886;-3.904;2022-09-20T09:10:28;20.60;73.60
51007;DHT22;37034;47.886;-3.904;2022-09-20T09:12:55;20.70;73.40
51007;DHT22;37034;47.886;-3.904;2022-09-20T09:15:28;20.80;71.90
51007;DHT22;37034;47.886;-3.904;2022-09-20T09:17:56;20.80;71.30
51007;DHT22;37034;47.886;-3.904;2022-09-20T09:20:23;21.00;73.30
51007;DHT22;37034;47.886;-3.904;2022-09-20T09:23:04;21.10;72.90
51007;DHT22;37034;47.886;-3.904;2022-09-20T09:25:35;21.20;71.70
51007;DHT22;37034;47.886;-3.904;2022-09-20T09:30:36;21.30;71.70
51007;DHT22;37034;47.886;-3.904;2022-09-20T09:33:26;21.30;70.60
51007;DHT22;37034;47.886;-3.904;2022-09-20T09:38:21;21.30;70.70
51007;DHT22;37034;47.886;-3.904;2022-09-20T09:41:03;21.30;69.50
51007;DHT22;37034;47.886;-3.904;2022-09-20T09:43:34;21.40;71.50
51007;DHT22;37034;47.886;-3.904;2022-09-20T09:46:22;21.50;70.00
51007;DHT22;37034;47.886;-3.904;2022-09-20T09:51:34;21.70;68.90
51007;DHT22;37034;47.886;-3.904;2022-09-20T09:54:01;21.80;69.80
51007;DHT22;37034;47.886;-3.904;2022-09-20T09:59:32;21.90;68.50
51007;DHT22;37034;47.886;-3.904;2022-09-20T10:07:52;22.20;68.50
51007;DHT22;37034;47.886;-3.904;2022-09-20T10:13:30;22.40;68.80
51007;DHT22;37034;47.886;-3.904;2022-09-20T10:32:27;23.10;66.70
51007;DHT22;37034;47.886;-3.904;2022-09-20T10:35:02;23.10;67.20
51007;DHT22;37034;47.886;-3.904;2022-09-20T10:42:44;23.30;67.00
51007;DHT22;37034;47.886;-3.904;2022-09-20T10:45:55;23.30;67.20
51007;DHT22;37034;47.886;-3.904;2022-09-20T10:48:40;23.30;67.00
51007;DHT22;37034;47.886;-3.904;2022-09-20T10:53:59;23.20;66.70
51007;DHT22;37034;47.886;-3.904;2022-09-20T10:56:37;23.20;66.60
51007;DHT22;37034;47.886;-3.904;2022-09-20T11:09:54;23.00;66.20
51007;DHT22;37034;47.886;-3.904;2022-09-20T11:12:35;23.10;66.30
51007;DHT22;37034;47.886;-3.904;2022-09-20T11:15:23;23.10;66.60
51007;DHT22;37034;47.886;-3.904;2022-09-20T11:20:26;23.10;66.40
51007;DHT22;37034;47.886;-3.904;2022-09-20T11:23:13;23.10;66.60
51007;DHT22;37034;47.886;-3.904;2022-09-20T11:25:52;23.10;66.50
51007;DHT22;37034;47.886;-3.904;2022-09-20T11:28:49;23.10;65.90
51007;DHT22;37034;47.886;-3.904;2022-09-20T11:31:38;23.00;66.20
51007;DHT22;37034;47.886;-3.904;2022-09-20T11:36:59;23.10;66.70
51007;DHT22;37034;47.886;-3.904;2022-09-20T11:39:41;23.20;66.60
51007;DHT22;37034;47.886;-3.904;2022-09-20T11:42:20;23.20;66.60
51007;DHT22;37034;47.886;-3.904;2022-09-20T11:44:47;23.30;66.40
51007;DHT22;37034;47.886;-3.904;2022-09-20T11:47:22;23.30;66.00
51007;DHT22;37034;47.886;-3.904;2022-09-20T11:57:36;23.30;65.40
51007;DHT22;37034;47.886;-3.904;2022-09-20T12:00:03;23.40;65.60
51007;DHT22;37034;47.886;-3.904;2022-09-20T12:02:46;23.50;65.40
51007;DHT22;37034;47.886;-3.904;2022-09-20T12:05:26;23.50;64.80
51007;DHT22;37034;47.886;-3.904;2022-09-20T12:07:55;23.50;64.70
51007;DHT22;37034;47.886;-3.904;2022-09-20T12:10:31;23.60;64.60
51007;DHT22;37034;47.886;-3.904;2022-09-20T12:12:59;23.50;64.50
51007;DHT22;37034;47.886;-3.904;2022-09-20T12:15:35;23.40;64.50
51007;DHT22;37034;47.886;-3.904;2022-09-20T12:28:34;23.70;64.10
51007;DHT22;37034;47.886;-3.904;2022-09-20T12:36:43;23.80;64.30
51007;DHT22;37034;47.886;-3.904;2022-09-20T12:41:59;23.90;64.60
51007;DHT22;37034;47.886;-3.904;2022-09-20T12:44:37;23.90;64.10
51007;DHT22;37034;47.886;-3.904;2022-09-20T12:52:39;23.70;64.10
51007;DHT22;37034;47.886;-3.904;2022-09-20T12:55:43;23.80;64.50
51007;DHT22;37034;47.886;-3.904;2022-09-20T12:58:16;23.80;65.00
51007;DHT22;37034;47.886;-3.904;2022-09-20T13:00:46;23.80;64.20
51007;DHT22;37034;47.886;-3.904;2022-09-20T13:03:36;23.80;64.50
51007;DHT22;37034;47.886;-3.904;2022-09-20T13:11:23;24.00;64.00
51007;DHT22;37034;47.886;-3.904;2022-09-20T13:13:57;24.10;63.90
51007;DHT22;37034;47.886;-3.904;2022-09-20T13:16:37;24.10;63.70
51007;DHT22;37034;47.886;-3.904;2022-09-20T13:19:20;24.00;63.70
51007;DHT22;37034;47.886;-3.904;2022-09-20T13:21:57;24.00;64.10
51007;DHT22;37034;47.886;-3.904;2022-09-20T13:24:31;23.90;64.10
51007;DHT22;37034;47.886;-3.904;2022-09-20T13:27:04;23.90;64.10
51007;DHT22;37034;47.886;-3.904;2022-09-20T13:32:27;24.10;64.40
51007;DHT22;37034;47.886;-3.904;2022-09-20T13:37:52;24.10;63.80
51007;DHT22;37034;47.886;-3.904;2022-09-20T13:40:32;24.10;63.30
51007;DHT22;37034;47.886;-3.904;2022-09-20T13:43:01;24.00;63.40
51007;DHT22;37034;47.886;-3.904;2022-09-20T13:45:28;23.90;63.00
51007;DHT22;37034;47.886;-3.904;2022-09-20T13:47:57;23.90;63.30
51007;DHT22;37034;47.886;-3.904;2022-09-20T13:50:27;23.90;63.80
51007;DHT22;37034;47.886;-3.904;2022-09-20T13:52:54;24.00;64.00
51007;DHT22;37034;47.886;-3.904;2022-09-20T13:57:51;24.00;63.50
51007;DHT22;37034;47.886;-3.904;2022-09-20T14:00:18;23.90;63.30
51007;DHT22;37034;47.886;-3.904;2022-09-20T14:02:43;23.90;63.80
51007;DHT22;37034;47.886;-3.904;2022-09-20T14:05:15;23.80;63.90
51007;DHT22;37034;47.886;-3.904;2022-09-20T14:07:44;23.80;63.40
51007;DHT22;37034;47.886;-3.904;2022-09-20T14:10:30;23.80;63.50
51007;DHT22;37034;47.886;-3.904;2022-09-20T14:12:58;23.90;63.20
51007;DHT22;37034;47.886;-3.904;2022-09-20T14:15:36;23.90;63.40
51007;DHT22;37034;47.886;-3.904;2022-09-20T14:18:04;24.00;63.80
51007;DHT22;37034;47.886;-3.904;2022-09-20T14:20:31;24.10;64.30
51007;DHT22;37034;47.886;-3.904;2022-09-20T14:22:57;24.10;63.60
51007;DHT22;37034;47.886;-3.904;2022-09-20T14:25:24;24.10;63.50
51007;DHT22;37034;47.886;-3.904;2022-09-20T14:28:18;24.10;63.20
51007;DHT22;37034;47.886;-3.904;2022-09-20T14:30:45;24.00;63.30
51007;DHT22;37034;47.886;-3.904;2022-09-20T14:33:18;24.00;63.40
51007;DHT22;37034;47.886;-3.904;2022-09-20T14:35:50;24.00;63.70
51007;DHT22;37034;47.886;-3.904;2022-09-20T14:38:18;24.00;64.10
51007;DHT22;37034;47.886;-3.904;2022-09-20T14:40:48;24.00;63.80
51007;DHT22;37034;47.886;-3.904;2022-09-20T14:45:57;24.00;63.80
51007;DHT22;37034;47.886;-3.904;2022-09-20T14:53:49;23.90;63.30
51007;DHT22;37034;47.886;-3.904;2022-09-20T14:56:16;23.80;63.80
51007;DHT22;37034;47.886;-3.904;2022-09-20T14:59:41;23.90;63.90
51007;DHT22;37034;47.886;-3.904;2022-09-20T15:02:12;24.00;64.10
51007;DHT22;37034;47.886;-3.904;2022-09-20T15:04:41;24.00;64.10
51007;DHT22;37034;47.886;-3.904;2022-09-20T15:07:15;24.10;64.00
51007;DHT22;37034;47.886;-3.904;2022-09-20T15:09:41;24.10;63.60
51007;DHT22;37034;47.886;-3.904;2022-09-20T15:12:18;24.10;63.60
51007;DHT22;37034;47.886;-3.904;2022-09-20T15:14:45;24.00;63.50
51007;DHT22;37034;47.886;-3.904;2022-09-20T15:17:17;23.90;63.60
51007;DHT22;37034;47.886;-3.904;2022-09-20T15:19:43;23.80;63.60
51007;DHT22;37034;47.886;-3.904;2022-09-20T15:22:09;23.80;63.60
51007;DHT22;37034;47.886;-3.904;2022-09-20T15:24:36;23.70;63.80
51007;DHT22;37034;47.886;-3.904;2022-09-20T15:27:02;23.70;64.20
51007;DHT22;37034;47.886;-3.904;2022-09-20T15:29:28;23.70;64.50
51007;DHT22;37034;47.886;-3.904;2022-09-20T15:31:54;23.80;64.60
51007;DHT22;37034;47.886;-3.904;2022-09-20T15:34:20;23.80;64.50
51007;DHT22;37034;47.886;-3.904;2022-09-20T15:36:47;23.80;64.40
51007;DHT22;37034;47.886;-3.904;2022-09-20T15:39:13;23.80;64.50
51007;DHT22;37034;47.886;-3.904;2022-09-20T15:41:39;23.90;64.80
51007;DHT22;37034;47.886;-3.904;2022-09-20T15:44:05;23.90;64.50
51007;DHT22;37034;47.886;-3.904;2022-09-20T15:46:32;23.90;64.60
51007;DHT22;37034;47.886;-3.904;2022-09-20T15:48:59;23.90;64.60
51007;DHT22;37034;47.886;-3.904;2022-09-20T15:51:27;23.90;65.00
51007;DHT22;37034;47.886;-3.904;2022-09-20T15:53:57;23.90;65.20
51007;DHT22;37034;47.886;-3.904;2022-09-20T15:56:29;23.90;65.30
51007;DHT22;37034;47.886;-3.904;2022-09-20T15:59:00;23.90;65.30
51007;DHT22;37034;47.886;-3.904;2022-09-20T16:01:34;23.90;65.40
51007;DHT22;37034;47.886;-3.904;2022-09-20T16:04:12;23.90;65.50
51007;DHT22;37034;47.886;-3.904;2022-09-20T16:06:39;23.80;65.30
51007;DHT22;37034;47.886;-3.904;2022-09-20T16:09:06;23.70;65.50
51007;DHT22;37034;47.886;-3.904;2022-09-20T16:11:32;23.70;65.70
51007;DHT22;37034;47.886;-3.904;2022-09-20T16:13:59;23.60;65.60
51007;DHT22;37034;47.886;-3.904;2022-09-20T16:16:26;23.60;65.40
51007;DHT22;37034;47.886;-3.904;2022-09-20T16:18:52;23.50;65.50
51007;DHT22;37034;47.886;-3.904;2022-09-20T16:21:38;23.50;65.50
51007;DHT22;37034;47.886;-3.904;2022-09-20T16:24:05;23.50;65.50
51007;DHT22;37034;47.886;-3.904;2022-09-20T16:26:31;23.50;65.40
51007;DHT22;37034;47.886;-3.904;2022-09-20T16:28:59;23.40;65.40
51007;DHT22;37034;47.886;-3.904;2022-09-20T16:33:57;23.40;65.30
51007;DHT22;37034;47.886;-3.904;2022-09-20T16:36:24;23.40;65.40
51007;DHT22;37034;47.886;-3.904;2022-09-20T16:38:51;23.40;65.40
51007;DHT22;37034;47.886;-3.904;2022-09-20T16:41:20;23.30;65.20
51007;DHT22;37034;47.886;-3.904;2022-09-20T16:43:47;23.30;65.50
51007;DHT22;37034;47.886;-3.904;2022-09-20T16:46:25;23.40;65.80
51007;DHT22;37034;47.886;-3.904;2022-09-20T16:48:55;23.30;66.10
51007;DHT22;37034;47.886;-3.904;2022-09-20T16:51:23;23.30;66.20
51007;DHT22;37034;47.886;-3.904;2022-09-20T16:53:53;23.30;66.70
51007;DHT22;37034;47.886;-3.904;2022-09-20T16:56:25;23.30;66.50
51007;DHT22;37034;47.886;-3.904;2022-09-20T16:58:52;23.30;66.70
51007;DHT22;37034;47.886;-3.904;2022-09-20T17:01:18;23.20;66.40
51007;DHT22;37034;47.886;-3.904;2022-09-20T17:03:45;23.20;66.40
51007;DHT22;37034;47.886;-3.904;2022-09-20T17:06:13;23.20;66.30
51007;DHT22;37034;47.886;-3.904;2022-09-20T17:08:39;23.10;66.40
51007;DHT22;37034;47.886;-3.904;2022-09-20T17:11:07;23.10;66.40
51007;DHT22;37034;47.886;-3.904;2022-09-20T17:13:34;23.10;66.40
51007;DHT22;37034;47.886;-3.904;2022-09-20T17:16:02;23.00;66.40
51007;DHT22;37034;47.886;-3.904;2022-09-20T17:18:28;23.00;66.60
51007;DHT22;37034;47.886;-3.904;2022-09-20T17:20:53;22.90;66.50
51007;DHT22;37034;47.886;-3.904;2022-09-20T17:23:19;22.90;66.80
51007;DHT22;37034;47.886;-3.904;2022-09-20T17:25:45;22.90;66.90
51007;DHT22;37034;47.886;-3.904;2022-09-20T17:28:12;22.90;67.30
51007;DHT22;37034;47.886;-3.904;2022-09-20T17:30:39;22.80;67.20
51007;DHT22;37034;47.886;-3.904;2022-09-20T17:33:05;22.80;67.30
51007;DHT22;37034;47.886;-3.904;2022-09-20T17:35:31;22.70;67.60
51007;DHT22;37034;47.886;-3.904;2022-09-20T17:37:57;22.60;67.60
51007;DHT22;37034;47.886;-3.904;2022-09-20T17:40:22;22.60;67.90
51007;DHT22;37034;47.886;-3.904;2022-09-20T17:42:48;22.50;68.20
51007;DHT22;37034;47.886;-3.904;2022-09-20T17:45:14;22.40;68.20
51007;DHT22;37034;47.886;-3.904;2022-09-20T17:47:41;22.30;68.80
51007;DHT22;37034;47.886;-3.904;2022-09-20T17:50:07;22.30;68.40
51007;DHT22;37034;47.886;-3.904;2022-09-20T17:52:39;22.20;68.40
51007;DHT22;37034;47.886;-3.904;2022-09-20T17:55:05;22.20;68.60
51007;DHT22;37034;47.886;-3.904;2022-09-20T17:57:31;22.10;68.60
51007;DHT22;37034;47.886;-3.904;2022-09-20T17:59:57;22.10;68.60
51007;DHT22;37034;47.886;-3.904;2022-09-20T18:02:23;22.00;68.90
51007;DHT22;37034;47.886;-3.904;2022-09-20T18:04:49;22.00;68.50
51007;DHT22;37034;47.886;-3.904;2022-09-20T18:07:14;21.90;68.80
51007;DHT22;37034;47.886;-3.904;2022-09-20T18:09:40;21.90;68.90
51007;DHT22;37034;47.886;-3.904;2022-09-20T18:12:06;21.80;68.80
51007;DHT22;37034;47.886;-3.904;2022-09-20T18:14:31;21.70;68.90
51007;DHT22;37034;47.886;-3.904;2022-09-20T18:16:58;21.70;68.90
51007;DHT22;37034;47.886;-3.904;2022-09-20T18:19:26;21.50;69.00
51007;DHT22;37034;47.886;-3.904;2022-09-20T18:22:01;21.50;69.00
51007;DHT22;37034;47.886;-3.904;2022-09-20T18:24:28;21.40;69.10
51007;DHT22;37034;47.886;-3.904;2022-09-20T18:26:54;21.40;69.10
51007;DHT22;37034;47.886;-3.904;2022-09-20T18:29:20;21.30;69.10
51007;DHT22;37034;47.886;-3.904;2022-09-20T18:31:51;21.20;69.50
51007;DHT22;37034;47.886;-3.904;2022-09-20T18:34:23;21.10;69.30
51007;DHT22;37034;47.886;-3.904;2022-09-20T18:36:53;21.10;69.30
51007;DHT22;37034;47.886;-3.904;2022-09-20T18:39:24;21.00;69.50
51007;DHT22;37034;47.886;-3.904;2022-09-20T18:41:50;20.90;69.40
51007;DHT22;37034;47.886;-3.904;2022-09-20T18:44:17;20.90;69.70
51007;DHT22;37034;47.886;-3.904;2022-09-20T18:46:44;20.90;70.00
51007;DHT22;37034;47.886;-3.904;2022-09-20T18:49:13;20.80;69.80
51007;DHT22;37034;47.886;-3.904;2022-09-20T18:51:41;20.70;70.60
51007;DHT22;37034;47.886;-3.904;2022-09-20T18:54:08;20.50;70.80
51007;DHT22;37034;47.886;-3.904;2022-09-20T18:56:37;20.40;70.50
51007;DHT22;37034;47.886;-3.904;2022-09-20T18:59:06;20.40;70.70
51007;DHT22;37034;47.886;-3.904;2022-09-20T19:12:58;20.20;71.90
51007;DHT22;37034;47.886;-3.904;2022-09-20T19:21:26;20.30;72.80
51007;DHT22;37034;47.886;-3.904;2022-09-20T19:24:11;20.30;72.50
51007;DHT22;37034;47.886;-3.904;2022-09-20T19:26:39;20.30;72.80
51007;DHT22;37034;47.886;-3.904;2022-09-20T19:29:13;20.40;72.30
51007;DHT22;37034;47.886;-3.904;2022-09-20T19:31:41;20.30;73.00
51007;DHT22;37034;47.886;-3.904;2022-09-20T19:34:21;20.30;72.70
51007;DHT22;37034;47.886;-3.904;2022-09-20T19:45:26;20.40;72.80
51007;DHT22;37034;47.886;-3.904;2022-09-20T19:48:20;20.30;73.00
51007;DHT22;37034;47.886;-3.904;2022-09-20T19:50:50;20.30;72.90
51007;DHT22;37034;47.886;-3.904;2022-09-20T19:53:19;20.30;72.50
51007;DHT22;37034;47.886;-3.904;2022-09-20T19:55:54;20.30;72.40
51007;DHT22;37034;47.886;-3.904;2022-09-20T19:58:21;20.30;72.10
51007;DHT22;37034;47.886;-3.904;2022-09-20T20:00:47;20.30;72.30
51007;DHT22;37034;47.886;-3.904;2022-09-20T20:03:14;20.30;72.50
51007;DHT22;37034;47.886;-3.904;2022-09-20T20:06:08;20.30;71.90
51007;DHT22;37034;47.886;-3.904;2022-09-20T20:08:42;20.20;72.40
51007;DHT22;37034;47.886;-3.904;2022-09-20T20:17:39;20.00;72.10
51007;DHT22;37034;47.886;-3.904;2022-09-20T20:26:15;19.80;72.90
51007;DHT22;37034;47.886;-3.904;2022-09-20T20:28:14;19.80;72.60
51007;DHT22;37034;47.886;-3.904;2022-09-20T20:30:40;19.80;72.30
51007;DHT22;37034;47.886;-3.904;2022-09-20T20:33:06;19.80;72.30
51007;DHT22;37034;47.886;-3.904;2022-09-20T20:35:32;19.80;72.30
51007;DHT22;37034;47.886;-3.904;2022-09-20T20:37:58;19.80;72.40
51007;DHT22;37034;47.886;-3.904;2022-09-20T20:40:24;19.80;72.20
51007;DHT22;37034;47.886;-3.904;2022-09-20T20:42:55;19.70;72.60
51007;DHT22;37034;47.886;-3.904;2022-09-20T20:45:26;19.70;72.60
51007;DHT22;37034;47.886;-3.904;2022-09-20T20:47:56;19.70;72.60
51007;DHT22;37034;47.886;-3.904;2022-09-20T20:50:23;19.70;73.00
51007;DHT22;37034;47.886;-3.904;2022-09-20T20:52:53;19.60;73.00
51007;DHT22;37034;47.886;-3.904;2022-09-20T20:55:20;19.60;73.30
51007;DHT22;37034;47.886;-3.904;2022-09-20T20:57:53;19.60;73.00
51007;DHT22;37034;47.886;-3.904;2022-09-20T21:00:23;19.60;73.40
51007;DHT22;37034;47.886;-3.904;2022-09-20T21:02:55;19.60;73.40
51007;DHT22;37034;47.886;-3.904;2022-09-20T21:05:21;19.60;73.60
51007;DHT22;37034;47.886;-3.904;2022-09-20T21:07:51;19.60;73.50
51007;DHT22;37034;47.886;-3.904;2022-09-20T21:10:18;19.60;73.60
51007;DHT22;37034;47.886;-3.904;2022-09-20T21:12:43;19.60;73.40
51007;DHT22;37034;47.886;-3.904;2022-09-20T21:15:09;19.60;73.30
51007;DHT22;37034;47.886;-3.904;2022-09-20T21:17:36;19.60;73.50
51007;DHT22;37034;47.886;-3.904;2022-09-20T21:20:02;19.60;74.00
51007;DHT22;37034;47.886;-3.904;2022-09-20T21:22:28;19.50;73.80
51007;DHT22;37034;47.886;-3.904;2022-09-20T21:24:54;19.50;73.80
51007;DHT22;37034;47.886;-3.904;2022-09-20T21:27:20;19.50;74.20
51007;DHT22;37034;47.886;-3.904;2022-09-20T21:29:45;19.50;74.20
51007;DHT22;37034;47.886;-3.904;2022-09-20T21:32:11;19.40;74.20
51007;DHT22;37034;47.886;-3.904;2022-09-20T21:34:38;19.40;74.60